createdAt,value
2018-02-15T00:00:00.378Z,15.90
2018-02-15T00:01:00.355Z,16.80
2018-02-15T00:02:00.326Z,18.30
2018-02-15T00:03:00.306Z,15.80
2018-02-15T00:04:00.280Z,16.50
2018-02-15T00:05:00.260Z,16.60
2018-02-15T00:06:00.232Z,17.90
2018-02-15T00:07:00.210Z,17.20
2018-02-15T00:08:00.186Z,17.50
2018-02-15T00:09:00.167Z,16.70
2018-02-15T00:10:00.136Z,16.50
2018-02-15T00:11:00.113Z,17.30
2018-02-15T00:12:00.100Z,16.20
2018-02-15T00:13:00.067Z,17.50
2018-02-15T00:14:00.043Z,17.20
2018-02-15T00:15:00.030Z,17.40
2018-02-15T00:15:59.996Z,16.90
2018-02-15T00:16:59.970Z,16.00
2018-02-15T00:17:59.946Z,18.50
2018-02-15T00:18:59.927Z,18.20
2018-02-15T00:19:59.900Z,17.30
2018-02-15T00:20:59.876Z,17.70
2018-02-15T00:21:59.864Z,17.10
2018-02-15T00:22:59.830Z,17.00
2018-02-15T00:23:59.804Z,18.40
2018-02-15T00:24:59.780Z,17.30
2018-02-15T00:25:59.755Z,19.50
2018-02-15T00:26:59.733Z,18.20
2018-02-15T00:27:59.710Z,17.20
2018-02-15T00:28:59.718Z,17.60
2018-02-15T00:29:59.663Z,18.80
2018-02-15T00:30:59.636Z,18.60
2018-02-15T00:31:59.613Z,18.50
2018-02-15T00:32:59.601Z,16.80
2018-02-15T00:33:59.568Z,17.80
2018-02-15T00:34:59.549Z,18.00
2018-02-15T00:35:59.531Z,18.30
2018-02-15T00:36:59.499Z,17.20
2018-02-15T00:37:59.478Z,16.50
2018-02-15T00:38:59.447Z,18.30
2018-02-15T00:39:59.423Z,18.60
2018-02-15T00:40:59.399Z,17.20
2018-02-15T00:41:59.380Z,19.40
2018-02-15T00:42:59.352Z,17.90
2018-02-15T00:43:59.329Z,18.70
2018-02-15T00:44:59.307Z,18.50
2018-02-15T00:45:59.281Z,18.00
2018-02-15T00:46:59.265Z,19.10
2018-02-15T00:47:59.240Z,18.00
2018-02-15T00:48:59.211Z,19.80
2018-02-15T00:49:59.189Z,17.80
2018-02-15T00:50:59.163Z,17.30
2018-02-15T00:51:59.145Z,18.00
2018-02-15T00:52:59.116Z,17.60
2018-02-15T00:53:59.096Z,17.90
2018-02-15T00:54:59.068Z,18.50
2018-02-15T00:55:59.046Z,19.40
2018-02-15T00:56:59.026Z,19.50
2018-02-15T00:57:58.999Z,18.30
2018-02-15T00:58:58.976Z,17.30
2018-02-15T00:59:58.953Z,18.20
2018-02-15T01:00:58.928Z,17.50
2018-02-15T01:01:58.906Z,18.60
2018-02-15T01:02:58.885Z,17.80
2018-02-15T01:03:58.857Z,18.70
2018-02-15T01:04:58.839Z,18.10
2018-02-15T01:05:58.808Z,16.80
2018-02-15T01:06:58.787Z,20.10
2018-02-15T01:07:58.761Z,17.00
2018-02-15T01:08:58.737Z,19.00
2018-02-15T01:09:58.720Z,17.90
2018-02-15T01:10:58.691Z,17.30
2018-02-15T01:11:58.670Z,17.40
2018-02-15T01:12:58.643Z,17.80
2018-02-15T01:13:58.619Z,17.10
2018-02-15T01:14:58.599Z,17.80
2018-02-15T01:15:58.576Z,17.20
2018-02-15T01:16:58.550Z,18.60
2018-02-15T01:17:58.526Z,17.50
2018-02-15T01:18:58.501Z,17.10
2018-02-15T01:19:58.476Z,16.60
2018-02-15T01:20:58.454Z,16.70
2018-02-15T01:21:58.430Z,17.60
2018-02-15T01:22:58.404Z,16.90
2018-02-15T01:23:58.382Z,17.40
2018-02-15T01:24:58.362Z,16.90
2018-02-15T01:25:58.334Z,17.80
2018-02-15T01:26:58.311Z,18.30
2018-02-15T01:27:58.288Z,17.40
2018-02-15T01:28:58.266Z,16.90
2018-02-15T01:29:58.243Z,16.70
2018-02-15T01:30:58.216Z,17.00
2018-02-15T01:31:58.197Z,16.20
2018-02-15T01:32:58.170Z,16.80
2018-02-15T01:33:58.152Z,16.70
2018-02-15T01:34:58.125Z,16.50
2018-02-15T01:35:58.100Z,16.50
2018-02-15T01:36:58.078Z,16.80
2018-02-15T01:37:58.056Z,15.00
2018-02-15T01:38:58.027Z,16.40
2018-02-15T01:39:58.007Z,17.00
2018-02-15T01:40:57.987Z,16.20
2018-02-15T01:41:57.959Z,15.60
2018-02-15T01:42:57.934Z,15.30
2018-02-15T01:43:57.910Z,15.60
2018-02-15T01:44:57.890Z,15.00
2018-02-15T01:45:57.863Z,15.20
2018-02-15T01:46:57.843Z,15.60
2018-02-15T01:47:57.814Z,15.00
2018-02-15T01:48:57.794Z,15.30
2018-02-15T01:49:57.773Z,15.50
2018-02-15T01:50:57.746Z,14.60
2018-02-15T01:51:57.724Z,14.30
2018-02-15T01:52:57.696Z,15.00
2018-02-15T01:53:57.676Z,14.50
2018-02-15T01:54:57.658Z,16.50
2018-02-15T01:55:57.626Z,14.20
2018-02-15T01:56:57.604Z,14.40
2018-02-15T01:57:57.580Z,13.60
2018-02-15T01:58:57.564Z,14.30
2018-02-15T01:59:57.532Z,14.40
2018-02-15T02:00:57.508Z,14.70
2018-02-15T02:01:57.485Z,15.30
2018-02-15T02:02:57.467Z,14.00
2018-02-15T02:03:57.438Z,13.60
2018-02-15T02:04:57.414Z,13.80
2018-02-15T02:05:57.397Z,14.10
2018-02-15T02:06:57.370Z,13.40
2018-02-15T02:07:57.343Z,13.90
2018-02-15T02:08:57.329Z,12.60
2018-02-15T02:09:57.296Z,13.10
2018-02-15T02:10:57.273Z,14.20
2018-02-15T02:11:57.254Z,13.40
2018-02-15T02:12:57.227Z,13.00
2018-02-15T02:13:57.207Z,13.40
2018-02-15T02:14:57.184Z,14.30
2018-02-15T02:15:57.156Z,14.50
2018-02-15T02:16:57.136Z,15.20
2018-02-15T02:17:57.111Z,13.30
2018-02-15T02:18:57.087Z,14.00
2018-02-15T02:19:57.064Z,13.30
2018-02-15T02:20:57.040Z,13.30
2018-02-15T02:21:57.019Z,13.90
2018-02-15T02:22:56.992Z,13.90
2018-02-15T02:23:56.969Z,13.40
2018-02-15T02:24:56.951Z,13.60
2018-02-15T02:25:56.925Z,13.30
2018-02-15T02:26:56.900Z,14.60
2018-02-15T02:27:56.875Z,14.00
2018-02-15T02:28:56.852Z,13.80
2018-02-15T02:29:56.837Z,13.70
2018-02-15T02:30:56.804Z,14.10
2018-02-15T02:31:56.782Z,13.40
2018-02-15T02:32:56.762Z,14.50
2018-02-15T02:33:56.739Z,12.60
2018-02-15T02:34:56.714Z,14.00
2018-02-15T02:35:56.686Z,13.30
2018-02-15T02:36:56.666Z,13.60
2018-02-15T02:37:56.644Z,14.00
2018-02-15T02:38:56.619Z,13.30
2018-02-15T02:39:56.596Z,13.70
2018-02-15T02:40:56.571Z,13.90
2018-02-15T02:41:56.547Z,12.80
2018-02-15T02:42:56.525Z,12.90
2018-02-15T02:43:56.500Z,13.80
2018-02-15T02:44:56.476Z,13.40
2018-02-15T02:45:56.460Z,12.90
2018-02-15T02:46:56.437Z,14.60
2018-02-15T02:47:56.408Z,13.40
2018-02-15T02:48:56.386Z,14.00
2018-02-15T02:49:56.365Z,13.20
2018-02-15T02:50:56.336Z,13.20
2018-02-15T02:51:56.316Z,12.50
2018-02-15T02:52:56.294Z,13.90
2018-02-15T02:53:56.266Z,12.90
2018-02-15T02:54:56.250Z,12.90
2018-02-15T02:55:56.227Z,14.30
2018-02-15T02:56:56.195Z,12.90
2018-02-15T02:57:56.174Z,14.00
2018-02-15T02:58:56.155Z,13.50
2018-02-15T02:59:56.125Z,12.90
2018-02-15T03:00:56.109Z,12.20
2018-02-15T03:01:56.080Z,13.50
2018-02-15T03:02:56.060Z,13.20
2018-02-15T03:03:56.035Z,14.50
2018-02-15T03:04:56.009Z,13.00
2018-02-15T03:05:55.986Z,13.60
2018-02-15T03:06:55.966Z,13.40
2018-02-15T03:07:55.949Z,13.50
2018-02-15T03:08:55.918Z,12.50
2018-02-15T03:09:55.893Z,12.80
2018-02-15T03:10:55.872Z,12.50
2018-02-15T03:11:55.848Z,12.60
2018-02-15T03:12:55.832Z,13.60
2018-02-15T03:13:55.803Z,13.20
2018-02-15T03:14:55.777Z,13.30
2018-02-15T03:15:55.754Z,12.10
2018-02-15T03:16:55.730Z,13.30
2018-02-15T03:17:55.714Z,13.10
2018-02-15T03:18:55.686Z,13.50
2018-02-15T03:19:55.665Z,13.60
2018-02-15T03:20:55.637Z,13.50
2018-02-15T03:21:55.615Z,12.80
2018-02-15T03:22:55.595Z,13.10
2018-02-15T03:23:55.572Z,14.00
2018-02-15T03:24:55.547Z,13.10
2018-02-15T03:25:55.527Z,13.30
2018-02-15T03:26:55.501Z,12.70
2018-02-15T03:27:55.477Z,12.30
2018-02-15T03:28:55.452Z,12.60
2018-02-15T03:29:55.426Z,12.70
2018-02-15T03:30:55.404Z,12.80
2018-02-15T03:31:55.380Z,12.50
2018-02-15T03:32:55.361Z,13.20
2018-02-15T03:33:55.353Z,12.20
2018-02-15T03:34:55.314Z,12.50
2018-02-15T03:35:55.296Z,11.90
2018-02-15T03:36:55.266Z,12.10
2018-02-15T03:37:55.245Z,11.80
2018-02-15T03:38:55.225Z,12.70
2018-02-15T03:39:55.195Z,12.00
2018-02-15T03:40:55.172Z,13.50
2018-02-15T03:41:55.155Z,12.90
2018-02-15T03:42:55.127Z,12.90
2018-02-15T03:43:55.102Z,12.40
2018-02-15T03:44:55.080Z,12.50
2018-02-15T03:45:55.077Z,12.90
2018-02-15T03:46:55.032Z,12.20
2018-02-15T03:47:55.010Z,12.90
2018-02-15T03:48:54.991Z,13.00
2018-02-15T03:49:54.966Z,12.40
2018-02-15T03:50:54.942Z,13.00
2018-02-15T03:51:54.914Z,12.50
2018-02-15T03:52:54.893Z,12.60
2018-02-15T03:53:54.871Z,13.60
2018-02-15T03:54:54.845Z,11.70
2018-02-15T03:55:54.821Z,13.20
2018-02-15T03:56:54.801Z,12.60
2018-02-15T03:57:54.782Z,12.50
2018-02-15T03:58:54.752Z,12.60
2018-02-15T03:59:54.730Z,12.00
2018-02-15T04:00:54.715Z,11.30
2018-02-15T04:01:54.684Z,12.30
2018-02-15T04:02:54.668Z,13.00
2018-02-15T04:03:54.641Z,13.00
2018-02-15T04:04:54.615Z,12.90
2018-02-15T04:05:54.595Z,12.70
2018-02-15T04:06:54.570Z,12.40
2018-02-15T04:07:54.545Z,12.60
2018-02-15T04:08:54.526Z,12.90
2018-02-15T04:09:54.496Z,12.70
2018-02-15T04:10:54.475Z,12.00
2018-02-15T04:11:54.451Z,11.60
2018-02-15T04:12:54.427Z,12.30
2018-02-15T04:13:54.413Z,12.70
2018-02-15T04:14:54.387Z,11.80
2018-02-15T04:15:54.363Z,12.50
2018-02-15T04:16:54.336Z,12.80
2018-02-15T04:17:54.313Z,12.60
2018-02-15T04:18:54.289Z,11.60
2018-02-15T04:19:54.266Z,11.90
2018-02-15T04:20:54.244Z,11.90
2018-02-15T04:21:54.221Z,11.10
2018-02-15T04:22:54.196Z,11.80
2018-02-15T04:23:54.173Z,12.60
2018-02-15T04:24:54.156Z,12.00
2018-02-15T04:25:54.129Z,11.80
2018-02-15T04:26:54.105Z,11.60
2018-02-15T04:27:54.083Z,12.60
2018-02-15T04:28:54.056Z,13.00
2018-02-15T04:29:54.037Z,12.50
2018-02-15T04:30:54.015Z,12.60
2018-02-15T04:31:53.985Z,13.10
2018-02-15T04:32:53.966Z,13.30
2018-02-15T04:33:53.939Z,12.40
2018-02-15T04:34:53.923Z,12.50
2018-02-15T04:35:53.895Z,11.80
2018-02-15T04:36:53.873Z,12.80
2018-02-15T04:37:53.853Z,12.20
2018-02-15T04:38:53.828Z,12.80
2018-02-15T04:39:53.803Z,12.30
2018-02-15T04:40:53.781Z,12.40
2018-02-15T04:41:53.761Z,12.40
2018-02-15T04:42:53.736Z,12.30
2018-02-15T04:43:53.713Z,12.60
2018-02-15T04:44:53.687Z,12.90
2018-02-15T04:45:53.663Z,11.90
2018-02-15T04:46:53.642Z,13.20
2018-02-15T04:47:53.617Z,12.70
2018-02-15T04:48:53.594Z,13.20
2018-02-15T04:49:53.575Z,13.40
2018-02-15T04:50:53.550Z,14.20
2018-02-15T04:51:53.538Z,13.70
2018-02-15T04:52:53.500Z,13.80
2018-02-15T04:53:53.483Z,14.90
2018-02-15T04:54:53.456Z,13.70
2018-02-15T04:55:53.434Z,14.90
2018-02-15T04:56:53.410Z,15.20
2018-02-15T04:57:53.386Z,14.60
2018-02-15T04:58:53.366Z,15.20
2018-02-15T04:59:53.335Z,15.50
2018-02-15T05:00:53.315Z,16.20
2018-02-15T05:01:53.292Z,16.80
2018-02-15T05:02:53.267Z,16.80
2018-02-15T05:03:53.245Z,17.30
2018-02-15T05:04:53.220Z,17.60
2018-02-15T05:05:53.196Z,18.80
2018-02-15T05:06:53.172Z,19.40
2018-02-15T05:07:53.152Z,19.30
2018-02-15T05:08:53.126Z,19.20
2018-02-15T05:09:53.106Z,17.90
2018-02-15T05:10:53.082Z,18.70
2018-02-15T05:11:53.053Z,18.90
2018-02-15T05:12:53.029Z,18.50
2018-02-15T05:13:53.013Z,19.20
2018-02-15T05:14:52.985Z,20.10
2018-02-15T05:15:52.962Z,20.90
2018-02-15T05:16:52.934Z,20.10
2018-02-15T05:17:52.911Z,20.10
2018-02-15T05:18:52.896Z,20.40
2018-02-15T05:19:52.866Z,20.10
2018-02-15T05:20:52.841Z,21.20
2018-02-15T05:21:52.820Z,21.20
2018-02-15T05:22:52.796Z,22.30
2018-02-15T05:23:52.777Z,21.20
2018-02-15T05:24:52.745Z,21.90
2018-02-15T05:25:52.746Z,21.60
2018-02-15T05:26:52.703Z,23.50
2018-02-15T05:27:52.671Z,23.50
2018-02-15T05:28:52.652Z,23.40
2018-02-15T05:29:52.633Z,23.00
2018-02-15T05:30:52.606Z,22.30
2018-02-15T05:31:52.581Z,23.70
2018-02-15T05:32:52.556Z,24.70
2018-02-15T05:33:52.537Z,24.40
2018-02-15T05:34:52.509Z,24.00
2018-02-15T05:35:52.485Z,23.80
2018-02-15T05:36:52.466Z,24.50
2018-02-15T05:37:52.436Z,26.50
2018-02-15T05:38:52.416Z,23.40
2018-02-15T05:39:52.389Z,24.20
2018-02-15T05:40:52.367Z,24.90
2018-02-15T05:41:52.346Z,24.30
2018-02-15T05:42:52.324Z,25.90
2018-02-15T05:43:52.296Z,25.90
2018-02-15T05:44:52.278Z,24.40
2018-02-15T05:45:52.245Z,24.90
2018-02-15T05:46:52.225Z,25.80
2018-02-15T05:47:52.203Z,24.60
2018-02-15T05:48:52.184Z,25.70
2018-02-15T05:49:52.153Z,24.90
2018-02-15T05:50:52.126Z,24.70
2018-02-15T05:51:52.100Z,25.60
2018-02-15T05:52:52.082Z,23.70
2018-02-15T05:53:52.062Z,26.40
2018-02-15T05:54:52.033Z,24.90
2018-02-15T05:55:52.011Z,25.30
2018-02-15T05:56:51.983Z,25.70
2018-02-15T05:57:51.964Z,24.60
2018-02-15T05:58:51.936Z,26.30
2018-02-15T05:59:51.916Z,24.60
2018-02-15T06:00:51.887Z,25.80
2018-02-15T06:01:51.866Z,25.00
2018-02-15T06:02:51.846Z,25.50
2018-02-15T06:03:51.818Z,26.70
2018-02-15T06:04:51.792Z,24.60
2018-02-15T06:05:51.774Z,26.50
2018-02-15T06:06:51.747Z,26.40
2018-02-15T06:07:51.730Z,24.90
2018-02-15T06:08:51.695Z,26.10
2018-02-15T06:09:51.672Z,23.80
2018-02-15T06:10:51.647Z,25.00
2018-02-15T06:11:51.626Z,25.30
2018-02-15T06:12:51.599Z,24.50
2018-02-15T06:13:51.583Z,26.20
2018-02-15T06:14:51.556Z,24.10
2018-02-15T06:15:51.528Z,24.80
2018-02-15T06:16:51.511Z,25.50
2018-02-15T06:17:51.480Z,26.00
2018-02-15T06:18:51.456Z,24.40
2018-02-15T06:19:51.435Z,24.80
2018-02-15T06:20:51.413Z,24.90
2018-02-15T06:21:51.401Z,24.80
2018-02-15T06:22:51.365Z,24.60
2018-02-15T06:23:51.336Z,25.40
2018-02-15T06:24:51.333Z,25.70
2018-02-15T06:25:51.289Z,24.90
2018-02-15T06:26:51.266Z,25.60
2018-02-15T06:27:51.244Z,26.00
2018-02-15T06:28:51.226Z,27.60
2018-02-15T06:29:51.199Z,26.10
2018-02-15T06:30:51.182Z,24.10
2018-02-15T06:31:51.146Z,25.70
2018-02-15T06:32:51.124Z,25.20
2018-02-15T06:33:51.099Z,26.40
2018-02-15T06:34:51.076Z,25.20
2018-02-15T06:35:51.050Z,26.40
2018-02-15T06:36:51.028Z,25.60
2018-02-15T06:37:51.009Z,26.70
2018-02-15T06:38:50.983Z,25.40
2018-02-15T06:39:50.957Z,27.10
2018-02-15T06:40:50.937Z,25.90
2018-02-15T06:41:50.916Z,25.20
2018-02-15T06:42:50.888Z,25.90
2018-02-15T06:43:50.863Z,27.10
2018-02-15T06:44:50.836Z,27.30
2018-02-15T06:45:50.814Z,28.00
2018-02-15T06:46:50.788Z,27.50
2018-02-15T06:47:50.766Z,27.60
2018-02-15T06:48:50.743Z,28.10
2018-02-15T06:49:50.717Z,28.70
2018-02-15T06:50:50.694Z,28.80
2018-02-15T06:51:50.678Z,29.30
2018-02-15T06:52:50.647Z,27.50
2018-02-15T06:53:50.626Z,30.00
2018-02-15T06:54:50.599Z,30.60
2018-02-15T06:55:50.578Z,29.50
2018-02-15T06:56:50.550Z,30.00
2018-02-15T06:57:50.526Z,30.50
2018-02-15T06:58:50.503Z,28.60
2018-02-15T06:59:50.476Z,29.00
2018-02-15T07:00:50.455Z,28.00
2018-02-15T07:01:50.435Z,29.50
2018-02-15T07:02:50.406Z,29.30
2018-02-15T07:03:50.392Z,28.80
2018-02-15T07:04:50.358Z,30.60
2018-02-15T07:05:50.335Z,30.40
2018-02-15T07:06:50.313Z,30.50
2018-02-15T07:07:50.285Z,29.00
2018-02-15T07:08:50.263Z,29.30
2018-02-15T07:09:50.236Z,29.70
2018-02-15T07:10:50.219Z,29.20
2018-02-15T07:11:50.196Z,33.80
2018-02-15T07:12:50.165Z,29.60
2018-02-15T07:13:50.146Z,30.40
2018-02-15T07:14:50.136Z,30.50
2018-02-15T07:15:50.096Z,30.30
2018-02-15T07:16:50.072Z,31.30
2018-02-15T07:17:50.045Z,30.30
2018-02-15T07:18:50.024Z,30.20
2018-02-15T07:19:50.005Z,30.90
2018-02-15T07:20:49.976Z,30.40
2018-02-15T07:21:49.955Z,31.00
2018-02-15T07:22:49.925Z,31.80
2018-02-15T07:23:49.906Z,33.10
2018-02-15T07:24:49.882Z,32.60
2018-02-15T07:25:49.855Z,31.10
2018-02-15T07:26:49.839Z,31.70
2018-02-15T07:27:49.805Z,30.60
2018-02-15T07:28:49.787Z,30.40
2018-02-15T07:29:49.764Z,30.50
2018-02-15T07:30:49.734Z,31.30
2018-02-15T07:31:49.713Z,30.40
2018-02-15T07:32:49.685Z,29.90
2018-02-15T07:33:49.664Z,31.80
2018-02-15T07:34:49.645Z,31.20
2018-02-15T07:35:49.613Z,30.00
2018-02-15T07:36:49.599Z,32.40
2018-02-15T07:37:49.566Z,30.80
2018-02-15T07:38:49.546Z,30.90
2018-02-15T07:39:49.526Z,31.60
2018-02-15T07:40:49.500Z,33.00
2018-02-15T07:41:49.470Z,31.30
2018-02-15T07:42:49.454Z,32.20
2018-02-15T07:43:49.427Z,30.80
2018-02-15T07:44:49.406Z,30.70
2018-02-15T07:45:49.380Z,30.00
2018-02-15T07:46:49.369Z,30.60
2018-02-15T07:47:49.332Z,31.90
2018-02-15T07:48:49.307Z,29.60
2018-02-15T07:49:49.282Z,31.10
2018-02-15T07:50:49.264Z,31.30
2018-02-15T07:51:49.236Z,31.60
2018-02-15T07:52:49.213Z,31.00
2018-02-15T07:53:49.192Z,31.60
2018-02-15T07:54:49.166Z,31.70
2018-02-15T07:55:49.145Z,31.20
2018-02-15T07:56:49.124Z,32.00
2018-02-15T07:57:49.099Z,31.60
2018-02-15T07:58:49.082Z,31.60
2018-02-15T07:59:49.049Z,30.60
2018-02-15T08:00:49.030Z,33.80
2018-02-15T08:01:49.006Z,30.40
2018-02-15T08:02:49.020Z,30.70
2018-02-15T08:03:48.952Z,31.40
2018-02-15T08:04:48.926Z,30.90
2018-02-15T08:05:48.913Z,32.90
2018-02-15T08:06:48.879Z,32.80
2018-02-15T08:07:48.856Z,31.90
2018-02-15T08:08:48.835Z,31.30
2018-02-15T08:09:48.812Z,30.10
2018-02-15T08:10:48.795Z,30.00
2018-02-15T08:11:48.764Z,31.40
2018-02-15T08:12:48.735Z,31.90
2018-02-15T08:13:48.717Z,29.60
2018-02-15T08:14:48.693Z,29.40
2018-02-15T08:15:48.675Z,32.40
2018-02-15T08:16:48.642Z,30.00
2018-02-15T08:17:48.621Z,30.10
2018-02-15T08:18:48.597Z,29.50
2018-02-15T08:19:48.575Z,29.20
2018-02-15T08:20:48.551Z,31.10
2018-02-15T08:21:48.525Z,29.40
2018-02-15T08:22:48.505Z,30.00
2018-02-15T08:23:48.477Z,32.30
2018-02-15T08:24:48.459Z,32.30
2018-02-15T08:25:48.431Z,32.60
2018-02-15T08:26:48.413Z,30.70
2018-02-15T08:27:48.383Z,30.70
2018-02-15T08:28:48.359Z,31.30
2018-02-15T08:29:48.336Z,31.60
2018-02-15T08:30:48.316Z,33.30
2018-02-15T08:31:48.284Z,30.10
2018-02-15T08:32:48.263Z,30.30
2018-02-15T08:33:48.240Z,29.80
2018-02-15T08:34:48.216Z,30.90
2018-02-15T08:35:48.197Z,30.60
2018-02-15T08:36:48.171Z,30.50
2018-02-15T08:37:48.147Z,30.00
2018-02-15T08:38:48.127Z,31.90
2018-02-15T08:39:48.097Z,28.60
2018-02-15T08:40:48.073Z,31.70
2018-02-15T08:41:48.056Z,31.10
2018-02-15T08:42:48.026Z,29.40
2018-02-15T08:43:48.003Z,30.50
2018-02-15T08:44:47.980Z,28.40
2018-02-15T08:45:47.959Z,29.30
2018-02-15T08:46:47.933Z,32.00
2018-02-15T08:47:47.910Z,30.70
2018-02-15T08:48:47.887Z,30.20
2018-02-15T08:49:47.865Z,30.90
2018-02-15T08:50:47.842Z,29.80
2018-02-15T08:51:47.817Z,30.50
2018-02-15T08:52:47.795Z,30.20
2018-02-15T08:53:47.765Z,30.50
2018-02-15T08:54:47.744Z,29.40
2018-02-15T08:55:47.726Z,29.40
2018-02-15T08:56:47.696Z,30.20
2018-02-15T08:57:47.678Z,29.90
2018-02-15T08:58:47.669Z,27.70
2018-02-15T08:59:47.622Z,27.70
2018-02-15T09:00:47.605Z,28.20
2018-02-15T09:01:47.576Z,31.10
2018-02-15T09:02:47.558Z,30.00
2018-02-15T09:03:47.533Z,29.10
2018-02-15T09:04:47.508Z,30.60
2018-02-15T09:05:47.487Z,28.40
2018-02-15T09:06:47.464Z,27.30
2018-02-15T09:07:47.438Z,29.30
2018-02-15T09:08:47.415Z,30.20
2018-02-15T09:09:47.390Z,29.50
2018-02-15T09:10:47.367Z,29.10
2018-02-15T09:11:47.347Z,28.30
2018-02-15T09:12:47.317Z,28.30
2018-02-15T09:13:47.298Z,28.20
2018-02-15T09:14:47.271Z,29.80
2018-02-15T09:15:47.255Z,29.10
2018-02-15T09:16:47.227Z,27.40
2018-02-15T09:17:47.199Z,28.70
2018-02-15T09:18:47.179Z,29.40
2018-02-15T09:19:47.151Z,29.00
2018-02-15T09:20:47.131Z,28.00
2018-02-15T09:21:47.104Z,28.30
2018-02-15T09:22:47.089Z,28.50
2018-02-15T09:23:47.060Z,27.60
2018-02-15T09:24:47.038Z,27.70
2018-02-15T09:25:47.013Z,28.40
2018-02-15T09:26:46.994Z,28.50
2018-02-15T09:27:46.966Z,27.30
2018-02-15T09:28:46.942Z,29.20
2018-02-15T09:29:46.927Z,27.60
2018-02-15T09:30:46.896Z,28.40
2018-02-15T09:31:46.874Z,26.30
2018-02-15T09:32:46.852Z,29.00
2018-02-15T09:33:46.833Z,27.70
2018-02-15T09:34:46.802Z,27.00
2018-02-15T09:35:46.778Z,26.90
2018-02-15T09:36:46.755Z,27.30
2018-02-15T09:37:46.730Z,26.70
2018-02-15T09:38:46.716Z,26.90
2018-02-15T09:39:46.687Z,26.40
2018-02-15T09:40:46.663Z,23.80
2018-02-15T09:41:46.641Z,27.60
2018-02-15T09:42:46.613Z,27.30
2018-02-15T09:43:46.588Z,29.10
2018-02-15T09:44:46.563Z,25.90
2018-02-15T09:45:46.591Z,27.00
2018-02-15T09:46:46.525Z,26.50
2018-02-15T09:47:46.504Z,25.30
2018-02-15T09:48:46.473Z,28.50
2018-02-15T09:49:46.457Z,25.50
2018-02-15T09:50:46.430Z,26.50
2018-02-15T09:51:46.406Z,26.80
2018-02-15T09:52:46.382Z,25.80
2018-02-15T09:53:46.356Z,24.30
2018-02-15T09:54:46.336Z,25.90
2018-02-15T09:55:46.311Z,24.00
2018-02-15T09:56:46.288Z,24.00
2018-02-15T09:57:46.285Z,25.60
2018-02-15T09:58:46.240Z,23.60
2018-02-15T09:59:46.223Z,24.20
2018-02-15T10:00:46.196Z,24.00
2018-02-15T10:01:46.171Z,26.30
2018-02-15T10:02:46.148Z,25.50
2018-02-15T10:03:46.122Z,26.90
2018-02-15T10:04:46.099Z,26.40
2018-02-15T10:05:46.087Z,23.70
2018-02-15T10:06:46.058Z,24.40
2018-02-15T10:07:46.039Z,23.20
2018-02-15T10:08:46.015Z,24.20
2018-02-15T10:09:45.982Z,23.90
2018-02-15T10:10:45.960Z,25.40
2018-02-15T10:11:45.937Z,24.10
2018-02-15T10:12:45.918Z,24.20
2018-02-15T10:13:45.895Z,24.10
2018-02-15T10:14:45.865Z,23.80
2018-02-15T10:15:45.843Z,23.10
2018-02-15T10:16:45.818Z,24.70
2018-02-15T10:17:45.797Z,23.40
2018-02-15T10:18:45.772Z,23.20
2018-02-15T10:19:45.745Z,23.40
2018-02-15T10:20:45.722Z,21.80
2018-02-15T10:21:45.698Z,23.30
2018-02-15T10:22:45.689Z,21.70
2018-02-15T10:23:45.653Z,20.70
2018-02-15T10:24:45.631Z,21.60
2018-02-15T10:25:45.609Z,22.80
2018-02-15T10:26:45.583Z,22.10
2018-02-15T10:27:45.561Z,21.40
2018-02-15T10:28:45.536Z,20.20
2018-02-15T10:29:45.518Z,21.20
2018-02-15T10:30:45.495Z,21.80
2018-02-15T10:31:45.469Z,22.90
2018-02-15T10:32:45.443Z,24.00
2018-02-15T10:33:45.424Z,21.90
2018-02-15T10:34:45.397Z,22.10
2018-02-15T10:35:45.372Z,22.90
2018-02-15T10:36:45.353Z,22.70
2018-02-15T10:37:45.327Z,23.90
2018-02-15T10:38:45.305Z,24.70
2018-02-15T10:39:45.278Z,23.20
2018-02-15T10:40:45.254Z,22.40
2018-02-15T10:41:45.233Z,23.80
2018-02-15T10:42:45.211Z,24.30
2018-02-15T10:43:45.187Z,21.50
2018-02-15T10:44:45.166Z,22.30
2018-02-15T10:45:45.149Z,23.40
2018-02-15T10:46:45.121Z,23.30
2018-02-15T10:47:45.103Z,24.10
2018-02-15T10:48:45.072Z,22.90
2018-02-15T10:49:45.048Z,22.60
2018-02-15T10:50:45.023Z,23.50
2018-02-15T10:51:45.008Z,23.20
2018-02-15T10:52:44.975Z,24.00
2018-02-15T10:53:44.957Z,23.60
2018-02-15T10:54:44.930Z,22.40
2018-02-15T10:55:44.904Z,23.70
2018-02-15T10:56:44.897Z,24.30
2018-02-15T10:57:44.867Z,24.90
2018-02-15T10:58:44.835Z,23.40
2018-02-15T10:59:44.816Z,23.30
2018-02-15T11:00:44.798Z,25.00
2018-02-15T11:01:44.776Z,23.90
2018-02-15T11:02:44.749Z,24.40
2018-02-15T11:03:44.729Z,22.90
2018-02-15T11:04:44.697Z,25.30
2018-02-15T11:05:44.675Z,24.90
2018-02-15T11:06:44.665Z,25.00
2018-02-15T11:07:44.626Z,24.20
2018-02-15T11:08:44.606Z,23.80
2018-02-15T11:09:44.589Z,25.50
2018-02-15T11:10:44.570Z,26.20
2018-02-15T11:11:44.537Z,26.10
2018-02-15T11:12:44.514Z,24.60
2018-02-15T11:13:44.491Z,24.00
2018-02-15T11:14:44.470Z,25.20
2018-02-15T11:15:44.479Z,23.90
2018-02-15T11:16:44.420Z,25.60
2018-02-15T11:17:44.406Z,26.80
2018-02-15T11:18:44.376Z,26.30
2018-02-15T11:19:44.349Z,26.80
2018-02-15T11:20:44.336Z,27.30
2018-02-15T11:21:44.313Z,26.70
2018-02-15T11:22:44.290Z,28.40
2018-02-15T11:23:44.256Z,29.70
2018-02-15T11:24:44.235Z,29.20
2018-02-15T11:25:44.213Z,29.30
2018-02-15T11:26:44.196Z,28.60
2018-02-15T11:27:44.166Z,29.10
2018-02-15T11:28:44.147Z,29.20
2018-02-15T11:29:44.125Z,28.80
2018-02-15T11:30:44.097Z,29.50
2018-02-15T11:31:44.076Z,27.50
2018-02-15T11:32:44.055Z,31.80
2018-02-15T11:33:44.028Z,28.10
2018-02-15T11:34:44.010Z,29.40
2018-02-15T11:35:43.985Z,30.40
2018-02-15T11:36:43.960Z,28.60
2018-02-15T11:37:43.943Z,30.90
2018-02-15T11:38:43.912Z,31.00
2018-02-15T11:39:43.886Z,30.40
2018-02-15T11:40:43.866Z,32.00
2018-02-15T11:41:43.845Z,31.30
2018-02-15T11:42:43.825Z,30.50
2018-02-15T11:43:43.796Z,30.70
2018-02-15T11:44:43.786Z,32.70
2018-02-15T11:45:43.772Z,32.20
2018-02-15T11:46:43.731Z,32.70
2018-02-15T11:47:43.707Z,34.30
2018-02-15T11:48:43.686Z,33.90
2018-02-15T11:49:43.668Z,32.50
2018-02-15T11:50:43.634Z,34.10
2018-02-15T11:51:43.608Z,34.50
2018-02-15T11:52:43.589Z,36.90
2018-02-15T11:53:43.566Z,36.70
2018-02-15T11:54:43.545Z,37.70
2018-02-15T11:55:43.518Z,36.70
2018-02-15T11:56:43.496Z,39.20
2018-02-15T11:57:43.484Z,37.40
2018-02-15T11:58:43.451Z,35.80
2018-02-15T11:59:43.425Z,38.20
2018-02-15T12:00:43.403Z,35.90
2018-02-15T12:01:43.399Z,37.80
2018-02-15T12:02:43.356Z,39.60
2018-02-15T12:03:43.332Z,41.50
2018-02-15T12:04:43.312Z,40.20
2018-02-15T12:05:43.287Z,39.40
2018-02-15T12:06:43.266Z,42.50
2018-02-15T12:07:43.246Z,41.30
2018-02-15T12:08:43.227Z,40.50
2018-02-15T12:09:43.196Z,43.00
2018-02-15T12:10:43.173Z,36.80
2018-02-15T12:11:43.146Z,41.40
2018-02-15T12:12:43.128Z,42.70
2018-02-15T12:13:43.110Z,39.40
2018-02-15T12:14:43.081Z,40.20
2018-02-15T12:15:43.054Z,40.40
2018-02-15T12:16:43.030Z,43.00
2018-02-15T12:17:43.015Z,40.60
2018-02-15T12:18:42.997Z,40.10
2018-02-15T12:19:42.972Z,40.30
2018-02-15T12:20:42.942Z,39.60
2018-02-15T12:21:42.916Z,44.50
2018-02-15T12:22:42.896Z,40.20
2018-02-15T12:23:42.875Z,44.60
2018-02-15T12:24:42.848Z,42.10
2018-02-15T12:25:42.825Z,39.90
2018-02-15T12:26:42.804Z,43.50
2018-02-15T12:27:42.782Z,43.30
2018-02-15T12:28:42.756Z,40.00
2018-02-15T12:29:42.745Z,43.00
2018-02-15T12:30:42.711Z,43.30
2018-02-15T12:31:42.688Z,43.90
2018-02-15T12:32:42.666Z,41.60
2018-02-15T12:33:42.640Z,39.40
2018-02-15T12:34:42.622Z,41.30
2018-02-15T12:35:42.594Z,40.50
2018-02-15T12:36:42.580Z,42.50
2018-02-15T12:37:42.561Z,40.20
2018-02-15T12:38:42.529Z,41.20
2018-02-15T12:39:42.506Z,39.80
2018-02-15T12:40:42.482Z,40.50
2018-02-15T12:41:42.460Z,38.90
2018-02-15T12:42:42.451Z,39.90
2018-02-15T12:43:42.417Z,46.70
2018-02-15T12:44:42.388Z,39.70
2018-02-15T12:45:42.369Z,40.40
2018-02-15T12:46:42.343Z,41.10
2018-02-15T12:47:42.325Z,38.70
2018-02-15T12:48:42.299Z,38.60
2018-02-15T12:49:42.279Z,37.00
2018-02-15T12:50:42.261Z,38.30
2018-02-15T12:51:42.238Z,38.80